createdAt,value
2023-03-24T00:01:26.275Z,6.20
2023-03-24T00:15:18.107Z,4.97
2023-03-24T00:24:26.257Z,6.77
2023-03-24T00:28:55.416Z,6.33
2023-03-24T00:33:20.872Z,6.20
2023-03-24T00:38:03.397Z,6.63
2023-03-24T00:42:35.528Z,6.97
2023-03-24T00:46:57.932Z,6.27
2023-03-24T00:51:14.446Z,6.17
2023-03-24T00:55:55.586Z,6.57
2023-03-24T01:00:31.164Z,6.53
2023-03-24T01:05:07.123Z,7.13
2023-03-24T01:09:27.504Z,7.70
2023-03-24T01:13:48.904Z,7.70
2023-03-24T01:18:52.216Z,6.67
2023-03-24T01:28:24.502Z,8.03
2023-03-24T01:33:27.259Z,7.00
2023-03-24T01:38:06.112Z,7.80
2023-03-24T01:42:33.104Z,7.60
2023-03-24T01:46:48.199Z,7.17
2023-03-24T01:51:23.752Z,6.87
2023-03-24T01:55:57.854Z,7.03
2023-03-24T02:00:30.655Z,7.83
2023-03-24T02:04:48.584Z,7.37
2023-03-24T02:09:20.529Z,8.43
2023-03-24T02:13:40.163Z,8.63
2023-03-24T02:18:26.888Z,7.37
2023-03-24T02:28:22.372Z,8.47
2023-03-24T02:33:09.981Z,6.60
2023-03-24T02:38:38.529Z,6.90
2023-03-24T02:43:40.094Z,7.67
2023-03-24T02:48:22.148Z,7.60
2023-03-24T02:52:41.540Z,6.93
2023-03-24T02:57:01.573Z,6.83
2023-03-24T03:01:16.787Z,7.07
2023-03-24T03:10:18.772Z,6.60
2023-03-24T03:14:46.160Z,7.30
2023-03-24T03:19:01.224Z,6.50
2023-03-24T03:23:24.481Z,6.80
2023-03-24T03:32:31.150Z,6.87
2023-03-24T03:36:49.978Z,6.53
2023-03-24T03:41:12.528Z,7.53
2023-03-24T03:45:22.764Z,6.57
2023-03-24T03:49:48.537Z,7.27
2023-03-24T03:54:03.985Z,6.60
2023-03-24T03:58:30.232Z,7.03
2023-03-24T04:02:53.501Z,7.10
2023-03-24T04:07:15.848Z,6.63
2023-03-24T04:11:57.267Z,7.47
2023-03-24T04:16:36.982Z,6.83
2023-03-24T04:20:53.738Z,6.87
2023-03-24T04:25:18.974Z,6.97
2023-03-24T04:29:54.027Z,7.03
2023-03-24T04:34:23.613Z,7.57
2023-03-24T04:43:12.517Z,6.87
2023-03-24T04:47:26.564Z,7.57
2023-03-24T04:51:37.862Z,7.77
2023-03-24T04:56:10.254Z,7.63
2023-03-24T05:00:22.283Z,7.33
2023-03-24T05:04:33.476Z,6.87
2023-03-24T05:08:44.444Z,6.20
2023-03-24T05:12:53.730Z,6.83
2023-03-24T05:17:03.962Z,5.57
2023-03-24T05:21:14.543Z,7.10
2023-03-24T05:25:25.824Z,5.93
2023-03-24T05:29:35.938Z,6.63
2023-03-24T05:33:46.894Z,7.10
2023-03-24T05:37:56.814Z,6.40
2023-03-24T05:42:09.006Z,6.37
2023-03-24T05:46:19.193Z,6.43
2023-03-24T05:50:29.278Z,6.30
2023-03-24T05:54:39.933Z,6.20
2023-03-24T05:58:51.710Z,6.20
2023-03-24T06:03:04.791Z,7.23
2023-03-24T06:07:17.263Z,7.43
2023-03-24T06:11:29.768Z,7.77
2023-03-24T06:15:43.372Z,6.93
2023-03-24T06:20:04.578Z,5.87
2023-03-24T06:24:15.317Z,6.60
2023-03-24T06:28:27.524Z,6.60
2023-03-24T06:32:40.449Z,6.90
2023-03-24T06:36:50.124Z,6.90
2023-03-24T06:41:04.151Z,7.77
2023-03-24T06:45:13.588Z,7.03
2023-03-24T06:49:24.428Z,6.23
2023-03-24T06:53:33.680Z,5.77
2023-03-24T06:57:47.312Z,5.60
2023-03-24T07:01:56.753Z,6.53
2023-03-24T07:06:08.100Z,6.63
2023-03-24T07:10:22.464Z,6.10
2023-03-24T07:14:32.151Z,6.53
2023-03-24T07:18:41.677Z,6.23
2023-03-24T07:22:54.140Z,6.63
2023-03-24T07:27:04.826Z,6.70
2023-03-24T07:31:15.515Z,5.93
2023-03-24T07:35:25.533Z,6.63
2023-03-24T07:39:38.009Z,5.30
2023-03-24T07:43:48.899Z,5.83
2023-03-24T07:48:02.827Z,6.37
2023-03-24T07:52:13.698Z,5.87
2023-03-24T07:56:27.094Z,5.77
2023-03-24T08:00:41.157Z,5.43
2023-03-24T08:04:55.271Z,5.40
2023-03-24T08:09:05.457Z,5.63
2023-03-24T08:13:17.985Z,5.97
2023-03-24T08:17:27.196Z,5.60
2023-03-24T08:21:37.460Z,5.63
2023-03-24T08:25:48.013Z,5.93
2023-03-24T08:29:59.298Z,4.50
2023-03-24T08:34:12.081Z,3.97
2023-03-24T08:38:23.547Z,4.63
2023-03-24T08:42:35.394Z,5.37
2023-03-24T08:46:46.040Z,3.83
2023-03-24T08:50:55.633Z,4.57
2023-03-24T08:55:11.376Z,5.07
2023-03-24T09:04:17.286Z,4.47
2023-03-24T09:08:28.635Z,4.80
2023-03-24T09:12:43.578Z,5.50
2023-03-24T09:16:55.504Z,6.27
2023-03-24T09:21:08.676Z,5.70
2023-03-24T09:25:24.963Z,5.73
2023-03-24T09:34:35.628Z,7.10
2023-03-24T09:38:57.419Z,7.10
2023-03-24T09:43:32.459Z,6.77
2023-03-24T09:48:01.448Z,6.43
2023-03-24T09:52:16.344Z,5.57
2023-03-24T09:56:33.084Z,6.33
2023-03-24T10:00:45.739Z,4.73
2023-03-24T10:04:59.739Z,5.83
2023-03-24T10:09:22.605Z,5.43
2023-03-24T10:13:46.129Z,6.33
2023-03-24T10:18:06.301Z,6.00
2023-03-24T10:22:23.012Z,6.97
2023-03-24T10:26:53.615Z,6.67
2023-03-24T10:36:32.382Z,5.43
2023-03-24T10:40:46.915Z,4.53
2023-03-24T10:44:58.767Z,4.97
2023-03-24T10:49:25.877Z,4.73
2023-03-24T10:53:58.268Z,5.10
2023-03-24T11:02:55.254Z,5.60
2023-03-24T11:07:21.513Z,5.83
2023-03-24T11:11:34.227Z,6.20
2023-03-24T11:15:57.257Z,5.87
2023-03-24T11:20:31.837Z,6.33
2023-03-24T11:24:44.679Z,6.10
2023-03-24T11:28:58.253Z,6.13
2023-03-24T11:33:11.565Z,5.97
2023-03-24T11:37:34.219Z,5.87
2023-03-24T11:42:02.460Z,5.30
2023-03-24T11:46:28.265Z,6.10
2023-03-24T11:55:54.430Z,5.70
2023-03-24T12:00:57.031Z,5.40
2023-03-24T12:05:39.874Z,7.33
2023-03-24T12:10:06.830Z,6.63
2023-03-24T12:14:26.905Z,5.00
2023-03-24T12:19:05.511Z,5.00
2023-03-24T12:23:34.858Z,5.70
2023-03-24T12:33:02.699Z,6.73
2023-03-24T12:37:50.515Z,3.13
2023-03-24T12:42:39.792Z,3.43
2023-03-24T12:47:04.026Z,2.73
2023-03-24T12:51:50.848Z,2.13
2023-03-24T12:56:09.543Z,3.50
2023-03-24T13:00:25.829Z,2.50
2023-03-24T13:04:40.318Z,3.10
2023-03-24T13:09:03.948Z,3.63
2023-03-24T13:13:19.705Z,3.30
2023-03-24T13:17:36.959Z,2.83
2023-03-24T13:21:48.406Z,3.80
2023-03-24T13:26:08.106Z,4.20
2023-03-24T13:30:31.770Z,3.63
2023-03-24T13:34:49.303Z,4.17
2023-03-24T13:39:04.375Z,4.87
2023-03-24T13:43:21.223Z,5.50
2023-03-24T13:47:50.995Z,5.23
2023-03-24T13:52:06.854Z,5.00
2023-03-24T13:56:27.062Z,4.80
2023-03-24T14:00:56.810Z,6.03
2023-03-24T14:05:08.688Z,6.03
2023-03-24T14:09:23.470Z,5.93
2023-03-24T14:13:39.486Z,6.10
2023-03-24T14:17:55.232Z,7.33
2023-03-24T14:22:14.955Z,6.27
2023-03-24T14:26:36.392Z,8.13
2023-03-24T14:31:03.873Z,7.27
2023-03-24T14:35:42.403Z,6.07
2023-03-24T14:39:52.701Z,6.70
2023-03-24T14:44:03.923Z,6.23
2023-03-24T14:48:32.847Z,6.37
2023-03-24T14:52:46.321Z,3.90
2023-03-24T14:57:01.388Z,3.63
2023-03-24T15:01:13.711Z,3.17
2023-03-24T15:05:26.754Z,3.13
2023-03-24T15:10:09.791Z,3.60
2023-03-24T15:14:40.198Z,3.37
2023-03-24T15:19:12.186Z,2.90
2023-03-24T15:23:26.737Z,2.83
2023-03-24T15:27:41.603Z,3.10
2023-03-24T15:31:53.213Z,4.03
2023-03-24T15:36:05.890Z,3.30
2023-03-24T15:40:34.644Z,2.97
2023-03-24T15:44:53.044Z,2.90
2023-03-24T15:54:04.834Z,3.70
2023-03-24T15:58:33.195Z,2.60
2023-03-24T16:02:48.058Z,2.87
2023-03-24T16:07:00.168Z,3.37
2023-03-24T16:11:13.793Z,3.23
2023-03-24T16:15:24.893Z,2.70
2023-03-24T16:19:35.186Z,2.93
2023-03-24T16:23:47.741Z,2.67
2023-03-24T16:28:06.139Z,2.50
2023-03-24T16:32:17.408Z,2.50
2023-03-24T16:36:34.163Z,3.00
2023-03-24T16:40:49.007Z,3.63
2023-03-24T16:45:01.678Z,3.20
2023-03-24T16:49:16.510Z,3.80
2023-03-24T16:53:26.699Z,3.03
2023-03-24T16:57:38.368Z,2.73
2023-03-24T17:02:06.055Z,3.30
2023-03-24T17:06:15.591Z,3.67
2023-03-24T17:10:26.005Z,3.53
2023-03-24T17:14:35.405Z,3.57
2023-03-24T17:18:46.935Z,3.53
2023-03-24T17:22:57.713Z,3.77
2023-03-24T17:27:13.047Z,5.20
2023-03-24T17:31:22.425Z,3.93
2023-03-24T17:35:33.382Z,5.33
2023-03-24T17:39:42.706Z,3.63
2023-03-24T17:43:52.187Z,5.23
2023-03-24T17:48:01.664Z,5.30
2023-03-24T17:52:13.823Z,5.53
2023-03-24T17:56:27.056Z,6.03
2023-03-24T18:00:37.685Z,5.37
2023-03-24T18:04:47.705Z,5.60
2023-03-24T18:09:00.561Z,5.73
2023-03-24T18:13:10.135Z,4.93
2023-03-24T18:17:21.722Z,6.37
2023-03-24T18:21:34.835Z,5.80
2023-03-24T18:25:46.515Z,6.10
2023-03-24T18:29:56.305Z,5.87
2023-03-24T18:34:06.995Z,6.43
2023-03-24T18:38:23.002Z,6.17
2023-03-24T18:42:36.323Z,6.03
2023-03-24T18:46:46.884Z,6.97
2023-03-24T18:50:56.723Z,5.90
2023-03-24T18:55:06.988Z,6.37
2023-03-24T18:59:20.751Z,6.10
2023-03-24T19:03:31.593Z,5.67
2023-03-24T19:07:47.223Z,4.53
2023-03-24T19:11:57.176Z,6.03
2023-03-24T19:16:10.678Z,5.57
2023-03-24T19:20:20.382Z,5.20
2023-03-24T19:24:38.818Z,4.53
2023-03-24T19:28:53.803Z,5.53
2023-03-24T19:33:20.288Z,5.37
2023-03-24T19:37:37.584Z,5.27
2023-03-24T19:41:49.650Z,5.87
2023-03-24T19:45:59.962Z,5.67
2023-03-24T19:50:13.873Z,6.60
2023-03-24T19:54:23.513Z,5.90
2023-03-24T19:58:33.002Z,4.87
2023-03-24T20:02:42.688Z,4.10
2023-03-24T20:06:54.034Z,6.60
2023-03-24T20:11:04.263Z,3.80
2023-03-24T20:15:14.294Z,4.40
2023-03-24T20:19:23.632Z,5.03
2023-03-24T20:23:34.692Z,4.50
2023-03-24T20:27:45.721Z,4.07
2023-03-24T20:31:57.463Z,3.87
2023-03-24T20:36:07.841Z,4.83
2023-03-24T20:40:25.216Z,5.20
2023-03-24T20:44:44.759Z,4.33
2023-03-24T20:49:02.350Z,4.90
2023-03-24T20:53:50.001Z,5.67
2023-03-24T20:58:43.937Z,6.53
2023-03-24T21:03:28.819Z,5.47
2023-03-24T21:08:49.289Z,4.73
2023-03-24T21:13:38.044Z,5.23
2023-03-24T21:18:19.975Z,6.10
2023-03-24T21:22:47.786Z,7.37
2023-03-24T21:26:57.613Z,5.57
2023-03-24T21:31:12.675Z,5.73
2023-03-24T21:35:35.382Z,5.93
2023-03-24T21:39:47.384Z,4.07
2023-03-24T21:43:56.764Z,3.87
2023-03-24T21:48:08.225Z,4.07
2023-03-24T21:52:19.265Z,3.90
2023-03-24T21:56:30.412Z,2.70
2023-03-24T22:00:40.467Z,3.33
2023-03-24T22:04:50.843Z,4.10
2023-03-24T22:09:06.696Z,3.50
2023-03-24T22:13:17.486Z,3.50
2023-03-24T22:17:27.151Z,4.10
2023-03-24T22:21:39.425Z,3.40
2023-03-24T22:25:49.309Z,3.80
2023-03-24T22:30:00.304Z,3.83
2023-03-24T22:34:09.834Z,4.00
2023-03-24T22:38:19.009Z,4.00
2023-03-24T22:42:28.344Z,3.67
2023-03-24T22:46:39.375Z,3.70
2023-03-24T22:50:50.386Z,4.33
2023-03-24T22:54:59.644Z,4.37
2023-03-24T22:59:09.069Z,3.87
2023-03-24T23:03:19.960Z,3.40
2023-03-24T23:07:30.094Z,3.77
2023-03-24T23:11:39.681Z,4.10
2023-03-24T23:15:53.288Z,3.90
2023-03-24T23:20:08.029Z,3.67
2023-03-24T23:24:18.001Z,3.70
2023-03-24T23:28:27.887Z,4.13
2023-03-24T23:32:38.223Z,4.40
2023-03-24T23:36:50.429Z,4.50
2023-03-24T23:40:59.668Z,4.23
2023-03-24T23:45:11.469Z,4.77
2023-03-24T23:49:20.913Z,4.07
2023-03-24T23:53:32.902Z,4.50
2023-03-24T23:57:42.876Z,3.83
